< < Back
Terminal Aerodrome Forecast


Current Version              Previous Versions:   1  2  3  4  5  6  7  8  9  

Terminal Aerodrome Forecast

860
FTUS42 KFFC 270330 AAB
TAFATL
TAF AMD
KATL 270330Z 2704/2806 14004KT P6SM SCT070 BKN120
     FM270700 16004KT P6SM SCT015 BKN100
     FM271000 27003KT P6SM BKN025 BKN100
     FM271500 28008KT P6SM VCSH SCT035 BKN120 PROB30 2717/2721 5SM
      -TSRA OVC025CB
     FM272200 30006KT P6SM SCT100=

Latest METAR

454
SAUS70 KWBC 270300 RRM
MTRATL
METAR KATL 270252Z 14003KT 10SM BKN150 BKN250 26/19 A3003 RMK AO2 SLP156
T02560189 50003


USA.gov is the U.S. government's official web portal to all federal, state and local government web resources and services.